sensor_id;sensor_type;location;lat;lon;timestamp;P1;durP1;ratioP1;P2;durP2;ratioP2
38226;SDS011;24026;49.446;8.576;2023-08-06T00:00:31;135.45;;;124.07;;
38226;SDS011;24026;49.446;8.576;2023-08-06T00:02:51;135.70;;;124.10;;
38226;SDS011;24026;49.446;8.576;2023-08-06T00:05:12;136.95;;;125.45;;
38226;SDS011;24026;49.446;8.576;2023-08-06T00:07:32;133.40;;;122.03;;
38226;SDS011;24026;49.446;8.576;2023-08-06T00:09:52;134.75;;;123.45;;
38226;SDS011;24026;49.446;8.576;2023-08-06T00:12:13;134.07;;;122.68;;
38226;SDS011;24026;49.446;8.576;2023-08-06T00:14:33;134.77;;;123.38;;
38226;SDS011;24026;49.446;8.576;2023-08-06T00:16:54;134.68;;;123.28;;
38226;SDS011;24026;49.446;8.576;2023-08-06T00:19:14;134.25;;;122.75;;
38226;SDS011;24026;49.446;8.576;2023-08-06T00:21:34;134.02;;;122.65;;
38226;SDS011;24026;49.446;8.576;2023-08-06T00:23:55;134.45;;;123.10;;
38226;SDS011;24026;49.446;8.576;2023-08-06T00:26:15;135.05;;;123.65;;
38226;SDS011;24026;49.446;8.576;2023-08-06T00:28:36;135.95;;;124.50;;
38226;SDS011;24026;49.446;8.576;2023-08-06T00:30:56;134.85;;;123.53;;
38226;SDS011;24026;49.446;8.576;2023-08-06T00:33:17;134.05;;;122.75;;
38226;SDS011;24026;49.446;8.576;2023-08-06T00:35:37;133.82;;;122.32;;
38226;SDS011;24026;49.446;8.576;2023-08-06T00:37:57;133.73;;;122.43;;
38226;SDS011;24026;49.446;8.576;2023-08-06T00:40:19;134.82;;;123.45;;
38226;SDS011;24026;49.446;8.576;2023-08-06T00:42:41;134.65;;;123.25;;
38226;SDS011;24026;49.446;8.576;2023-08-06T00:45:01;134.35;;;123.05;;
38226;SDS011;24026;49.446;8.576;2023-08-06T00:47:22;134.52;;;123.03;;
38226;SDS011;24026;49.446;8.576;2023-08-06T00:49:44;134.48;;;123.10;;
38226;SDS011;24026;49.446;8.576;2023-08-06T00:52:05;133.57;;;122.22;;
38226;SDS011;24026;49.446;8.576;2023-08-06T00:54:26;133.48;;;122.18;;
38226;SDS011;24026;49.446;8.576;2023-08-06T00:56:47;134.45;;;123.05;;
38226;SDS011;24026;49.446;8.576;2023-08-06T00:59:08;134.80;;;123.30;;
38226;SDS011;24026;49.446;8.576;2023-08-06T01:01:30;133.23;;;121.93;;
38226;SDS011;24026;49.446;8.576;2023-08-06T01:03:51;133.73;;;122.40;;
38226;SDS011;24026;49.446;8.576;2023-08-06T01:06:13;133.77;;;122.47;;
38226;SDS011;24026;49.446;8.576;2023-08-06T01:08:51;134.02;;;122.63;;
38226;SDS011;24026;49.446;8.576;2023-08-06T01:11:26;133.23;;;121.90;;
38226;SDS011;24026;49.446;8.576;2023-08-06T01:13:54;134.35;;;122.85;;
38226;SDS011;24026;49.446;8.576;2023-08-06T01:16:22;135.27;;;123.85;;
38226;SDS011;24026;49.446;8.576;2023-08-06T01:18:44;133.88;;;122.53;;
38226;SDS011;24026;49.446;8.576;2023-08-06T01:21:06;134.32;;;122.95;;
38226;SDS011;24026;49.446;8.576;2023-08-06T01:23:26;134.63;;;123.22;;
38226;SDS011;24026;49.446;8.576;2023-08-06T01:31:27;134.55;;;123.07;;
38226;SDS011;24026;49.446;8.576;2023-08-06T01:33:51;134.82;;;123.45;;
38226;SDS011;24026;49.446;8.576;2023-08-06T01:36:15;134.27;;;122.88;;
38226;SDS011;24026;49.446;8.576;2023-08-06T01:38:38;134.52;;;123.20;;
38226;SDS011;24026;49.446;8.576;2023-08-06T01:40:58;133.57;;;122.38;;
38226;SDS011;24026;49.446;8.576;2023-08-06T01:43:19;134.15;;;122.88;;
38226;SDS011;24026;49.446;8.576;2023-08-06T01:45:39;133.85;;;122.53;;
38226;SDS011;24026;49.446;8.576;2023-08-06T01:47:59;134.90;;;123.50;;
38226;SDS011;24026;49.446;8.576;2023-08-06T01:50:20;133.38;;;122.05;;
38226;SDS011;24026;49.446;8.576;2023-08-06T01:52:40;133.85;;;122.55;;
38226;SDS011;24026;49.446;8.576;2023-08-06T01:55:00;133.38;;;122.07;;
38226;SDS011;24026;49.446;8.576;2023-08-06T01:57:21;133.95;;;122.57;;
38226;SDS011;24026;49.446;8.576;2023-08-06T01:59:41;132.95;;;121.60;;
38226;SDS011;24026;49.446;8.576;2023-08-06T02:02:02;135.10;;;123.60;;
38226;SDS011;24026;49.446;8.576;2023-08-06T02:04:22;132.98;;;121.68;;
38226;SDS011;24026;49.446;8.576;2023-08-06T02:06:43;132.95;;;121.65;;
38226;SDS011;24026;49.446;8.576;2023-08-06T02:09:03;132.52;;;121.20;;
38226;SDS011;24026;49.446;8.576;2023-08-06T02:11:24;133.45;;;122.15;;
38226;SDS011;24026;49.446;8.576;2023-08-06T02:13:44;132.95;;;121.57;;
38226;SDS011;24026;49.446;8.576;2023-08-06T02:16:08;135.27;;;123.88;;
38226;SDS011;24026;49.446;8.576;2023-08-06T02:18:29;133.07;;;121.78;;
38226;SDS011;24026;49.446;8.576;2023-08-06T02:20:56;133.07;;;121.78;;
38226;SDS011;24026;49.446;8.576;2023-08-06T02:23:17;132.20;;;121.00;;
38226;SDS011;24026;49.446;8.576;2023-08-06T02:25:38;135.10;;;123.70;;
38226;SDS011;24026;49.446;8.576;2023-08-06T02:27:58;132.80;;;121.50;;
38226;SDS011;24026;49.446;8.576;2023-08-06T02:30:19;133.35;;;121.97;;
38226;SDS011;24026;49.446;8.576;2023-08-06T02:32:39;134.07;;;122.75;;
38226;SDS011;24026;49.446;8.576;2023-08-06T02:34:59;132.95;;;121.60;;
38226;SDS011;24026;49.446;8.576;2023-08-06T02:37:20;131.63;;;120.43;;
38226;SDS011;24026;49.446;8.576;2023-08-06T02:39:40;132.10;;;120.70;;
38226;SDS011;24026;49.446;8.576;2023-08-06T02:42:01;133.30;;;121.97;;
38226;SDS011;24026;49.446;8.576;2023-08-06T02:44:22;133.30;;;122.00;;
38226;SDS011;24026;49.446;8.576;2023-08-06T02:46:43;132.63;;;121.40;;
38226;SDS011;24026;49.446;8.576;2023-08-06T02:49:05;132.80;;;121.50;;
38226;SDS011;24026;49.446;8.576;2023-08-06T02:51:26;131.90;;;120.70;;
38226;SDS011;24026;49.446;8.576;2023-08-06T02:53:47;132.50;;;121.20;;
38226;SDS011;24026;49.446;8.576;2023-08-06T02:56:09;132.98;;;121.68;;
38226;SDS011;24026;49.446;8.576;2023-08-06T02:58:29;133.82;;;122.43;;
38226;SDS011;24026;49.446;8.576;2023-08-06T03:01:05;134.07;;;122.57;;
38226;SDS011;24026;49.446;8.576;2023-08-06T03:03:27;133.43;;;122.07;;
38226;SDS011;24026;49.446;8.576;2023-08-06T03:05:53;132.05;;;120.82;;
38226;SDS011;24026;49.446;8.576;2023-08-06T03:08:14;134.63;;;122.93;;
38226;SDS011;24026;49.446;8.576;2023-08-06T03:10:34;131.77;;;120.38;;
38226;SDS011;24026;49.446;8.576;2023-08-06T03:12:55;132.65;;;121.35;;
38226;SDS011;24026;49.446;8.576;2023-08-06T03:15:15;131.82;;;120.50;;
38226;SDS011;24026;49.446;8.576;2023-08-06T03:17:36;133.38;;;121.88;;
38226;SDS011;24026;49.446;8.576;2023-08-06T03:19:56;133.10;;;121.70;;
38226;SDS011;24026;49.446;8.576;2023-08-06T03:22:16;132.82;;;121.43;;
38226;SDS011;24026;49.446;8.576;2023-08-06T03:24:37;130.95;;;119.78;;
38226;SDS011;24026;49.446;8.576;2023-08-06T03:26:57;131.50;;;120.30;;
38226;SDS011;24026;49.446;8.576;2023-08-06T03:29:17;131.35;;;120.07;;
38226;SDS011;24026;49.446;8.576;2023-08-06T03:31:38;131.68;;;120.45;;
38226;SDS011;24026;49.446;8.576;2023-08-06T03:33:59;131.50;;;120.30;;
38226;SDS011;24026;49.446;8.576;2023-08-06T03:36:19;131.73;;;120.53;;
38226;SDS011;24026;49.446;8.576;2023-08-06T03:38:40;131.38;;;120.22;;
38226;SDS011;24026;49.446;8.576;2023-08-06T03:41:00;131.93;;;120.65;;
38226;SDS011;24026;49.446;8.576;2023-08-06T03:43:20;132.00;;;120.72;;
38226;SDS011;24026;49.446;8.576;2023-08-06T03:45:41;133.35;;;121.95;;
38226;SDS011;24026;49.446;8.576;2023-08-06T03:48:01;133.50;;;122.25;;
38226;SDS011;24026;49.446;8.576;2023-08-06T03:50:22;131.77;;;120.55;;
38226;SDS011;24026;49.446;8.576;2023-08-06T03:52:42;132.10;;;120.90;;
38226;SDS011;24026;49.446;8.576;2023-08-06T03:55:02;131.98;;;120.70;;
38226;SDS011;24026;49.446;8.576;2023-08-06T03:57:23;131.60;;;120.35;;
38226;SDS011;24026;49.446;8.576;2023-08-06T03:59:43;131.90;;;120.68;;
38226;SDS011;24026;49.446;8.576;2023-08-06T04:02:04;132.15;;;120.85;;
38226;SDS011;24026;49.446;8.576;2023-08-06T04:04:24;132.57;;;121.35;;
38226;SDS011;24026;49.446;8.576;2023-08-06T04:06:44;133.25;;;121.97;;
38226;SDS011;24026;49.446;8.576;2023-08-06T04:09:05;132.18;;;120.97;;
38226;SDS011;24026;49.446;8.576;2023-08-06T04:11:25;132.18;;;120.97;;
38226;SDS011;24026;49.446;8.576;2023-08-06T04:13:46;132.32;;;121.00;;
38226;SDS011;24026;49.446;8.576;2023-08-06T04:16:06;131.77;;;120.57;;
38226;SDS011;24026;49.446;8.576;2023-08-06T04:18:26;133.52;;;122.22;;
38226;SDS011;24026;49.446;8.576;2023-08-06T04:20:47;133.55;;;122.25;;
38226;SDS011;24026;49.446;8.576;2023-08-06T04:23:09;133.27;;;121.90;;
38226;SDS011;24026;49.446;8.576;2023-08-06T04:25:29;131.25;;;120.05;;
38226;SDS011;24026;49.446;8.576;2023-08-06T04:27:50;132.02;;;120.82;;
38226;SDS011;24026;49.446;8.576;2023-08-06T04:30:10;131.75;;;120.50;;
38226;SDS011;24026;49.446;8.576;2023-08-06T04:32:32;132.63;;;121.35;;
38226;SDS011;24026;49.446;8.576;2023-08-06T04:34:55;131.55;;;120.38;;
38226;SDS011;24026;49.446;8.576;2023-08-06T04:37:15;131.15;;;119.97;;
38226;SDS011;24026;49.446;8.576;2023-08-06T04:39:36;133.95;;;122.45;;
38226;SDS011;24026;49.446;8.576;2023-08-06T04:41:56;130.88;;;119.75;;
38226;SDS011;24026;49.446;8.576;2023-08-06T04:44:20;134.43;;;122.93;;
38226;SDS011;24026;49.446;8.576;2023-08-06T04:46:40;131.57;;;120.38;;
38226;SDS011;24026;49.446;8.576;2023-08-06T04:49:01;131.13;;;119.85;;
38226;SDS011;24026;49.446;8.576;2023-08-06T04:51:21;131.77;;;120.38;;
38226;SDS011;24026;49.446;8.576;2023-08-06T04:53:42;132.20;;;120.93;;
38226;SDS011;24026;49.446;8.576;2023-08-06T04:56:02;131.40;;;120.22;;
38226;SDS011;24026;49.446;8.576;2023-08-06T04:58:22;130.43;;;119.25;;
38226;SDS011;24026;49.446;8.576;2023-08-06T05:00:43;130.52;;;119.32;;
38226;SDS011;24026;49.446;8.576;2023-08-06T05:03:04;132.15;;;120.93;;
38226;SDS011;24026;49.446;8.576;2023-08-06T05:05:25;132.25;;;120.95;;
38226;SDS011;24026;49.446;8.576;2023-08-06T05:07:48;131.27;;;119.90;;
38226;SDS011;24026;49.446;8.576;2023-08-06T05:10:09;131.27;;;120.05;;
38226;SDS011;24026;49.446;8.576;2023-08-06T05:12:29;132.32;;;121.10;;
38226;SDS011;24026;49.446;8.576;2023-08-06T05:14:50;131.00;;;119.85;;
38226;SDS011;24026;49.446;8.576;2023-08-06T05:17:10;130.32;;;119.07;;
38226;SDS011;24026;49.446;8.576;2023-08-06T05:19:30;130.63;;;119.43;;
38226;SDS011;24026;49.446;8.576;2023-08-06T05:21:51;130.35;;;119.20;;
38226;SDS011;24026;49.446;8.576;2023-08-06T05:24:11;130.57;;;119.43;;
38226;SDS011;24026;49.446;8.576;2023-08-06T05:26:32;131.27;;;119.97;;
38226;SDS011;24026;49.446;8.576;2023-08-06T05:28:52;129.90;;;118.60;;
38226;SDS011;24026;49.446;8.576;2023-08-06T05:31:13;131.50;;;120.22;;
38226;SDS011;24026;49.446;8.576;2023-08-06T05:33:33;130.07;;;119.00;;
38226;SDS011;24026;49.446;8.576;2023-08-06T05:35:53;130.63;;;119.40;;
38226;SDS011;24026;49.446;8.576;2023-08-06T05:38:14;131.63;;;120.43;;
38226;SDS011;24026;49.446;8.576;2023-08-06T05:40:34;129.93;;;118.82;;
38226;SDS011;24026;49.446;8.576;2023-08-06T05:42:55;131.25;;;120.05;;
38226;SDS011;24026;49.446;8.576;2023-08-06T05:45:15;130.02;;;118.93;;
38226;SDS011;24026;49.446;8.576;2023-08-06T05:47:36;130.93;;;119.75;;
38226;SDS011;24026;49.446;8.576;2023-08-06T05:49:56;130.75;;;119.43;;
38226;SDS011;24026;49.446;8.576;2023-08-06T05:52:16;129.95;;;118.72;;
38226;SDS011;24026;49.446;8.576;2023-08-06T05:54:37;132.15;;;120.80;;
38226;SDS011;24026;49.446;8.576;2023-08-06T05:56:57;132.95;;;121.65;;
38226;SDS011;24026;49.446;8.576;2023-08-06T05:59:17;131.25;;;120.03;;
38226;SDS011;24026;49.446;8.576;2023-08-06T06:01:38;131.30;;;120.07;;
38226;SDS011;24026;49.446;8.576;2023-08-06T06:03:58;130.60;;;119.38;;
38226;SDS011;24026;49.446;8.576;2023-08-06T06:06:19;130.25;;;119.10;;
38226;SDS011;24026;49.446;8.576;2023-08-06T06:08:40;130.80;;;119.63;;
38226;SDS011;24026;49.446;8.576;2023-08-06T06:11:00;130.35;;;119.15;;
38226;SDS011;24026;49.446;8.576;2023-08-06T06:13:21;130.02;;;118.85;;
38226;SDS011;24026;49.446;8.576;2023-08-06T06:15:41;130.10;;;118.88;;
38226;SDS011;24026;49.446;8.576;2023-08-06T06:18:02;130.25;;;119.07;;
38226;SDS011;24026;49.446;8.576;2023-08-06T06:20:22;130.23;;;118.93;;
38226;SDS011;24026;49.446;8.576;2023-08-06T06:22:43;132.10;;;120.78;;
38226;SDS011;24026;49.446;8.576;2023-08-06T06:25:03;131.15;;;119.90;;
38226;SDS011;24026;49.446;8.576;2023-08-06T06:27:24;129.93;;;118.82;;
38226;SDS011;24026;49.446;8.576;2023-08-06T06:29:44;129.73;;;118.47;;
38226;SDS011;24026;49.446;8.576;2023-08-06T06:32:05;130.70;;;119.43;;
38226;SDS011;24026;49.446;8.576;2023-08-06T06:34:25;130.70;;;119.50;;
38226;SDS011;24026;49.446;8.576;2023-08-06T06:36:46;131.32;;;120.05;;
38226;SDS011;24026;49.446;8.576;2023-08-06T06:39:06;130.82;;;119.55;;
38226;SDS011;24026;49.446;8.576;2023-08-06T06:41:28;130.48;;;119.07;;
38226;SDS011;24026;49.446;8.576;2023-08-06T06:43:51;129.73;;;118.57;;
38226;SDS011;24026;49.446;8.576;2023-08-06T06:46:11;130.52;;;119.22;;
38226;SDS011;24026;49.446;8.576;2023-08-06T06:48:32;130.55;;;119.43;;
38226;SDS011;24026;49.446;8.576;2023-08-06T06:50:53;131.10;;;119.90;;
38226;SDS011;24026;49.446;8.576;2023-08-06T06:53:14;131.15;;;119.85;;
38226;SDS011;24026;49.446;8.576;2023-08-06T06:55:34;131.65;;;120.35;;
38226;SDS011;24026;49.446;8.576;2023-08-06T06:57:55;129.85;;;118.68;;
38226;SDS011;24026;49.446;8.576;2023-08-06T07:00:15;131.57;;;120.30;;
38226;SDS011;24026;49.446;8.576;2023-08-06T07:02:36;131.13;;;119.80;;
38226;SDS011;24026;49.446;8.576;2023-08-06T07:04:56;130.57;;;119.18;;
38226;SDS011;24026;49.446;8.576;2023-08-06T07:07:16;129.98;;;118.78;;
38226;SDS011;24026;49.446;8.576;2023-08-06T07:09:37;129.63;;;118.50;;
38226;SDS011;24026;49.446;8.576;2023-08-06T07:11:57;131.30;;;120.05;;
38226;SDS011;24026;49.446;8.576;2023-08-06T07:14:17;131.75;;;120.35;;
38226;SDS011;24026;49.446;8.576;2023-08-06T07:16:38;129.90;;;118.80;;
38226;SDS011;24026;49.446;8.576;2023-08-06T07:18:58;130.20;;;118.97;;
38226;SDS011;24026;49.446;8.576;2023-08-06T07:21:19;129.32;;;118.18;;
38226;SDS011;24026;49.446;8.576;2023-08-06T07:23:40;131.15;;;119.75;;
38226;SDS011;24026;49.446;8.576;2023-08-06T07:26:00;130.68;;;119.47;;
38226;SDS011;24026;49.446;8.576;2023-08-06T07:28:21;130.65;;;119.45;;
38226;SDS011;24026;49.446;8.576;2023-08-06T07:30:42;130.98;;;119.63;;
38226;SDS011;24026;49.446;8.576;2023-08-06T07:33:04;129.85;;;118.70;;
38226;SDS011;24026;49.446;8.576;2023-08-06T07:35:24;130.98;;;119.78;;
38226;SDS011;24026;49.446;8.576;2023-08-06T07:37:48;130.60;;;119.25;;
38226;SDS011;24026;49.446;8.576;2023-08-06T07:40:08;129.70;;;118.57;;
38226;SDS011;24026;49.446;8.576;2023-08-06T07:42:29;131.10;;;119.90;;
38226;SDS011;24026;49.446;8.576;2023-08-06T07:44:51;131.55;;;120.22;;
38226;SDS011;24026;49.446;8.576;2023-08-06T07:47:12;129.57;;;118.45;;
38226;SDS011;24026;49.446;8.576;2023-08-06T07:49:33;130.10;;;118.90;;
38226;SDS011;24026;49.446;8.576;2023-08-06T07:51:53;134.20;;;122.70;;
38226;SDS011;24026;49.446;8.576;2023-08-06T07:54:13;130.18;;;119.00;;
38226;SDS011;24026;49.446;8.576;2023-08-06T07:56:34;130.85;;;119.63;;
38226;SDS011;24026;49.446;8.576;2023-08-06T07:58:56;129.70;;;118.57;;
38226;SDS011;24026;49.446;8.576;2023-08-06T08:01:17;130.38;;;119.20;;
38226;SDS011;24026;49.446;8.576;2023-08-06T08:03:37;131.95;;;120.75;;
38226;SDS011;24026;49.446;8.576;2023-08-06T08:05:57;130.77;;;119.65;;
38226;SDS011;24026;49.446;8.576;2023-08-06T08:08:18;128.77;;;117.75;;
38226;SDS011;24026;49.446;8.576;2023-08-06T08:10:38;129.82;;;118.68;;
38226;SDS011;24026;49.446;8.576;2023-08-06T08:12:59;131.00;;;119.80;;
38226;SDS011;24026;49.446;8.576;2023-08-06T08:15:19;130.43;;;119.22;;
38226;SDS011;24026;49.446;8.576;2023-08-06T08:17:40;130.95;;;119.65;;
38226;SDS011;24026;49.446;8.576;2023-08-06T08:20:00;130.43;;;119.25;;
38226;SDS011;24026;49.446;8.576;2023-08-06T08:22:21;131.70;;;120.53;;
38226;SDS011;24026;49.446;8.576;2023-08-06T08:24:41;131.75;;;120.55;;
38226;SDS011;24026;49.446;8.576;2023-08-06T08:27:01;130.85;;;119.70;;
38226;SDS011;24026;49.446;8.576;2023-08-06T08:29:22;130.57;;;119.38;;
38226;SDS011;24026;49.446;8.576;2023-08-06T08:31:42;131.10;;;119.88;;
38226;SDS011;24026;49.446;8.576;2023-08-06T08:34:04;131.73;;;120.50;;
38226;SDS011;24026;49.446;8.576;2023-08-06T08:36:26;130.95;;;119.80;;
38226;SDS011;24026;49.446;8.576;2023-08-06T08:38:46;130.55;;;119.35;;
38226;SDS011;24026;49.446;8.576;2023-08-06T08:41:06;131.10;;;119.97;;
38226;SDS011;24026;49.446;8.576;2023-08-06T08:43:30;130.43;;;119.25;;
38226;SDS011;24026;49.446;8.576;2023-08-06T08:45:51;129.48;;;118.40;;
38226;SDS011;24026;49.446;8.576;2023-08-06T08:48:15;129.30;;;118.15;;
38226;SDS011;24026;49.446;8.576;2023-08-06T08:50:37;128.75;;;117.55;;
38226;SDS011;24026;49.446;8.576;2023-08-06T08:52:58;131.23;;;119.82;;
38226;SDS011;24026;49.446;8.576;2023-08-06T08:55:19;129.07;;;117.97;;
38226;SDS011;24026;49.446;8.576;2023-08-06T08:57:42;130.20;;;119.15;;
38226;SDS011;24026;49.446;8.576;2023-08-06T09:00:03;129.75;;;118.68;;
38226;SDS011;24026;49.446;8.576;2023-08-06T09:02:25;131.45;;;120.25;;
38226;SDS011;24026;49.446;8.576;2023-08-06T09:04:49;129.48;;;118.40;;
38226;SDS011;24026;49.446;8.576;2023-08-06T09:07:10;131.50;;;120.30;;
38226;SDS011;24026;49.446;8.576;2023-08-06T09:09:37;128.93;;;117.90;;
38226;SDS011;24026;49.446;8.576;2023-08-06T09:12:00;129.50;;;118.45;;
38226;SDS011;24026;49.446;8.576;2023-08-06T09:14:22;130.45;;;119.35;;
38226;SDS011;24026;49.446;8.576;2023-08-06T09:16:42;128.77;;;117.75;;
38226;SDS011;24026;49.446;8.576;2023-08-06T09:19:13;130.10;;;119.07;;
38226;SDS011;24026;49.446;8.576;2023-08-06T09:21:40;129.63;;;118.53;;
38226;SDS011;24026;49.446;8.576;2023-08-06T09:24:06;130.15;;;119.05;;
38226;SDS011;24026;49.446;8.576;2023-08-06T09:26:33;130.00;;;118.88;;
38226;SDS011;24026;49.446;8.576;2023-08-06T09:28:54;129.32;;;118.25;;
38226;SDS011;24026;49.446;8.576;2023-08-06T09:31:14;130.05;;;118.90;;
38226;SDS011;24026;49.446;8.576;2023-08-06T09:33:38;130.98;;;119.57;;
38226;SDS011;24026;49.446;8.576;2023-08-06T09:36:06;130.63;;;119.43;;
38226;SDS011;24026;49.446;8.576;2023-08-06T09:38:28;129.25;;;118.15;;
38226;SDS011;24026;49.446;8.576;2023-08-06T09:40:59;131.05;;;119.80;;
38226;SDS011;24026;49.446;8.576;2023-08-06T09:43:19;130.13;;;119.03;;
38226;SDS011;24026;49.446;8.576;2023-08-06T09:45:39;130.40;;;119.30;;
38226;SDS011;24026;49.446;8.576;2023-08-06T09:48:01;129.30;;;118.25;;
38226;SDS011;24026;49.446;8.576;2023-08-06T09:50:25;129.85;;;118.75;;
38226;SDS011;24026;49.446;8.576;2023-08-06T09:52:49;129.75;;;118.72;;
38226;SDS011;24026;49.446;8.576;2023-08-06T09:55:11;129.43;;;118.43;;
38226;SDS011;24026;49.446;8.576;2023-08-06T09:57:32;129.98;;;118.88;;
38226;SDS011;24026;49.446;8.576;2023-08-06T09:59:52;130.20;;;119.10;;
38226;SDS011;24026;49.446;8.576;2023-08-06T10:02:13;131.60;;;120.40;;
38226;SDS011;24026;49.446;8.576;2023-08-06T10:04:34;130.57;;;119.50;;
38226;SDS011;24026;49.446;8.576;2023-08-06T10:06:54;130.02;;;118.93;;
38226;SDS011;24026;49.446;8.576;2023-08-06T10:09:15;130.35;;;119.25;;
38226;SDS011;24026;49.446;8.576;2023-08-06T10:11:36;130.98;;;119.85;;
38226;SDS011;24026;49.446;8.576;2023-08-06T10:14:20;130.85;;;119.78;;
38226;SDS011;24026;49.446;8.576;2023-08-06T10:16:48;129.23;;;118.18;;
38226;SDS011;24026;49.446;8.576;2023-08-06T10:19:09;129.63;;;118.53;;
38226;SDS011;24026;49.446;8.576;2023-08-06T10:21:32;129.40;;;118.40;;
38226;SDS011;24026;49.446;8.576;2023-08-06T10:23:55;129.80;;;118.80;;
38226;SDS011;24026;49.446;8.576;2023-08-06T10:26:16;128.57;;;117.38;;
38226;SDS011;24026;49.446;8.576;2023-08-06T10:28:37;129.02;;;118.05;;
38226;SDS011;24026;49.446;8.576;2023-08-06T10:30:58;128.60;;;117.55;;
38226;SDS011;24026;49.446;8.576;2023-08-06T10:33:19;128.93;;;118.03;;
38226;SDS011;24026;49.446;8.576;2023-08-06T10:35:41;131.43;;;120.25;;
38226;SDS011;24026;49.446;8.576;2023-08-06T10:38:09;129.68;;;118.60;;
38226;SDS011;24026;49.446;8.576;2023-08-06T10:40:30;129.30;;;118.30;;
38226;SDS011;24026;49.446;8.576;2023-08-06T10:42:51;129.65;;;118.57;;
38226;SDS011;24026;49.446;8.576;2023-08-06T10:45:12;129.45;;;118.35;;
38226;SDS011;24026;49.446;8.576;2023-08-06T10:47:39;128.95;;;117.95;;
38226;SDS011;24026;49.446;8.576;2023-08-06T10:50:00;128.48;;;117.47;;
38226;SDS011;24026;49.446;8.576;2023-08-06T10:52:20;129.55;;;118.50;;
38226;SDS011;24026;49.446;8.576;2023-08-06T10:54:41;130.27;;;119.18;;
38226;SDS011;24026;49.446;8.576;2023-08-06T10:57:02;129.30;;;118.30;;
38226;SDS011;24026;49.446;8.576;2023-08-06T10:59:30;128.75;;;117.75;;
38226;SDS011;24026;49.446;8.576;2023-08-06T11:01:50;129.20;;;118.07;;
38226;SDS011;24026;49.446;8.576;2023-08-06T11:04:10;128.93;;;117.93;;
38226;SDS011;24026;49.446;8.576;2023-08-06T11:06:35;128.87;;;117.87;;
38226;SDS011;24026;49.446;8.576;2023-08-06T11:08:56;127.45;;;116.57;;
38226;SDS011;24026;49.446;8.576;2023-08-06T11:11:16;130.57;;;119.50;;
38226;SDS011;24026;49.446;8.576;2023-08-06T11:13:40;130.52;;;119.38;;
38226;SDS011;24026;49.446;8.576;2023-08-06T11:16:01;129.05;;;118.05;;
38226;SDS011;24026;49.446;8.576;2023-08-06T11:18:21;130.20;;;119.10;;
38226;SDS011;24026;49.446;8.576;2023-08-06T11:20:42;128.30;;;117.32;;
38226;SDS011;24026;49.446;8.576;2023-08-06T11:23:02;130.25;;;119.15;;
38226;SDS011;24026;49.446;8.576;2023-08-06T11:25:24;128.88;;;117.72;;
38226;SDS011;24026;49.446;8.576;2023-08-06T11:27:45;129.48;;;118.47;;
38226;SDS011;24026;49.446;8.576;2023-08-06T11:30:05;129.00;;;118.00;;
38226;SDS011;24026;49.446;8.576;2023-08-06T11:32:26;130.73;;;119.63;;
38226;SDS011;24026;49.446;8.576;2023-08-06T11:34:47;128.23;;;117.25;;
38226;SDS011;24026;49.446;8.576;2023-08-06T11:37:08;128.75;;;117.75;;
38226;SDS011;24026;49.446;8.576;2023-08-06T11:39:29;130.43;;;119.25;;
38226;SDS011;24026;49.446;8.576;2023-08-06T11:41:50;128.95;;;117.95;;
38226;SDS011;24026;49.446;8.576;2023-08-06T11:44:11;131.05;;;119.93;;
38226;SDS011;24026;49.446;8.576;2023-08-06T11:46:51;129.00;;;118.00;;
38226;SDS011;24026;49.446;8.576;2023-08-06T11:49:15;129.52;;;118.43;;
38226;SDS011;24026;49.446;8.576;2023-08-06T11:51:36;129.48;;;118.47;;
38226;SDS011;24026;49.446;8.576;2023-08-06T11:53:57;128.10;;;117.18;;
38226;SDS011;24026;49.446;8.576;2023-08-06T11:56:18;129.55;;;118.45;;
38226;SDS011;24026;49.446;8.576;2023-08-06T11:58:40;128.98;;;117.97;;
38226;SDS011;24026;49.446;8.576;2023-08-06T12:01:01;129.32;;;118.38;;
38226;SDS011;24026;49.446;8.576;2023-08-06T12:03:22;129.57;;;118.50;;
38226;SDS011;24026;49.446;8.576;2023-08-06T12:05:47;128.77;;;117.78;;
38226;SDS011;24026;49.446;8.576;2023-08-06T12:08:08;129.43;;;118.38;;
38226;SDS011;24026;49.446;8.576;2023-08-06T12:10:29;130.88;;;119.78;;
38226;SDS011;24026;49.446;8.576;2023-08-06T12:12:51;129.05;;;118.10;;
38226;SDS011;24026;49.446;8.576;2023-08-06T12:15:12;129.70;;;118.70;;
38226;SDS011;24026;49.446;8.576;2023-08-06T12:17:32;132.88;;;121.63;;
38226;SDS011;24026;49.446;8.576;2023-08-06T12:19:53;130.18;;;119.07;;
38226;SDS011;24026;49.446;8.576;2023-08-06T12:22:14;129.73;;;118.68;;
38226;SDS011;24026;49.446;8.576;2023-08-06T12:24:35;130.10;;;119.00;;
38226;SDS011;24026;49.446;8.576;2023-08-06T12:26:55;129.73;;;118.70;;
38226;SDS011;24026;49.446;8.576;2023-08-06T12:29:17;130.88;;;119.75;;
38226;SDS011;24026;49.446;8.576;2023-08-06T12:31:38;130.30;;;119.20;;
38226;SDS011;24026;49.446;8.576;2023-08-06T12:33:58;129.68;;;118.68;;
38226;SDS011;24026;49.446;8.576;2023-08-06T12:36:19;129.40;;;118.32;;
38226;SDS011;24026;49.446;8.576;2023-08-06T12:38:39;130.07;;;119.00;;
38226;SDS011;24026;49.446;8.576;2023-08-06T12:40:59;129.48;;;118.40;;
38226;SDS011;24026;49.446;8.576;2023-08-06T12:43:20;129.95;;;118.85;;
38226;SDS011;24026;49.446;8.576;2023-08-06T12:45:40;129.95;;;118.88;;
38226;SDS011;24026;49.446;8.576;2023-08-06T12:48:01;130.77;;;119.60;;
38226;SDS011;24026;49.446;8.576;2023-08-06T12:50:21;130.50;;;119.38;;
38226;SDS011;24026;49.446;8.576;2023-08-06T12:52:41;131.63;;;120.47;;
38226;SDS011;24026;49.446;8.576;2023-08-06T12:55:02;129.23;;;118.22;;
38226;SDS011;24026;49.446;8.576;2023-08-06T12:57:22;130.60;;;119.50;;
38226;SDS011;24026;49.446;8.576;2023-08-06T12:59:43;133.05;;;121.85;;
38226;SDS011;24026;49.446;8.576;2023-08-06T13:02:03;130.23;;;119.10;;
38226;SDS011;24026;49.446;8.576;2023-08-06T13:04:24;130.02;;;118.93;;
38226;SDS011;24026;49.446;8.576;2023-08-06T13:06:44;130.05;;;118.95;;
38226;SDS011;24026;49.446;8.576;2023-08-06T13:09:08;131.10;;;119.97;;
38226;SDS011;24026;49.446;8.576;2023-08-06T13:11:32;130.52;;;119.43;;
38226;SDS011;24026;49.446;8.576;2023-08-06T13:13:53;129.95;;;118.85;;
38226;SDS011;24026;49.446;8.576;2023-08-06T13:16:13;131.02;;;119.88;;
38226;SDS011;24026;49.446;8.576;2023-08-06T13:18:34;129.50;;;118.47;;
38226;SDS011;24026;49.446;8.576;2023-08-06T13:20:54;129.23;;;118.22;;
38226;SDS011;24026;49.446;8.576;2023-08-06T13:23:15;130.93;;;119.75;;
38226;SDS011;24026;49.446;8.576;2023-08-06T13:25:36;129.98;;;118.88;;
38226;SDS011;24026;49.446;8.576;2023-08-06T13:27:57;131.98;;;120.78;;